sensor_id;sensor_type;location;lat;lon;timestamp;P1;durP1;ratioP1;P2;durP2;ratioP2
3349;SDS011;1688;51.000;13.684;2022-08-19T00:01:42;9.37;;;7.83;;
3349;SDS011;1688;51.000;13.684;2022-08-19T00:04:10;11.10;;;7.93;;
3349;SDS011;1688;51.000;13.684;2022-08-19T00:06:43;12.60;;;7.60;;
3349;SDS011;1688;51.000;13.684;2022-08-19T00:09:13;11.90;;;7.63;;
3349;SDS011;1688;51.000;13.684;2022-08-19T00:11:42;9.03;;;6.80;;
3349;SDS011;1688;51.000;13.684;2022-08-19T00:14:09;11.23;;;6.63;;
3349;SDS011;1688;51.000;13.684;2022-08-19T00:16:37;7.40;;;6.50;;
3349;SDS011;1688;51.000;13.684;2022-08-19T00:19:05;10.37;;;7.53;;
3349;SDS011;1688;51.000;13.684;2022-08-19T00:21:31;12.20;;;6.60;;
3349;SDS011;1688;51.000;13.684;2022-08-19T00:23:57;14.50;;;7.00;;
3349;SDS011;1688;51.000;13.684;2022-08-19T00:26:25;15.60;;;8.80;;
3349;SDS011;1688;51.000;13.684;2022-08-19T00:28:52;13.50;;;9.10;;
3349;SDS011;1688;51.000;13.684;2022-08-19T00:31:19;14.43;;;8.77;;
3349;SDS011;1688;51.000;13.684;2022-08-19T00:33:45;12.40;;;7.73;;
3349;SDS011;1688;51.000;13.684;2022-08-19T00:36:12;10.33;;;6.47;;
3349;SDS011;1688;51.000;13.684;2022-08-19T00:38:39;8.40;;;7.07;;
3349;SDS011;1688;51.000;13.684;2022-08-19T00:41:18;11.93;;;6.90;;
3349;SDS011;1688;51.000;13.684;2022-08-19T00:44:03;11.53;;;7.67;;
3349;SDS011;1688;51.000;13.684;2022-08-19T00:46:36;9.80;;;6.13;;
3349;SDS011;1688;51.000;13.684;2022-08-19T00:49:15;12.10;;;8.23;;
3349;SDS011;1688;51.000;13.684;2022-08-19T00:51:41;10.60;;;7.47;;
3349;SDS011;1688;51.000;13.684;2022-08-19T00:54:09;13.40;;;6.93;;
3349;SDS011;1688;51.000;13.684;2022-08-19T00:56:36;13.03;;;10.30;;
3349;SDS011;1688;51.000;13.684;2022-08-19T00:59:03;10.83;;;8.87;;
3349;SDS011;1688;51.000;13.684;2022-08-19T01:01:37;9.77;;;7.53;;
3349;SDS011;1688;51.000;13.684;2022-08-19T01:04:06;15.40;;;9.70;;
3349;SDS011;1688;51.000;13.684;2022-08-19T01:06:32;15.33;;;8.17;;
3349;SDS011;1688;51.000;13.684;2022-08-19T01:09:00;11.63;;;7.33;;
3349;SDS011;1688;51.000;13.684;2022-08-19T01:11:27;13.67;;;9.43;;
3349;SDS011;1688;51.000;13.684;2022-08-19T01:13:54;15.70;;;8.20;;
3349;SDS011;1688;51.000;13.684;2022-08-19T01:16:20;13.80;;;8.20;;
3349;SDS011;1688;51.000;13.684;2022-08-19T01:18:49;18.70;;;9.50;;
3349;SDS011;1688;51.000;13.684;2022-08-19T01:21:18;8.70;;;7.50;;
3349;SDS011;1688;51.000;13.684;2022-08-19T01:23:55;9.93;;;7.10;;
3349;SDS011;1688;51.000;13.684;2022-08-19T01:26:22;9.83;;;6.93;;
3349;SDS011;1688;51.000;13.684;2022-08-19T01:28:51;11.60;;;7.80;;
3349;SDS011;1688;51.000;13.684;2022-08-19T01:31:21;11.17;;;7.90;;
3349;SDS011;1688;51.000;13.684;2022-08-19T01:33:49;14.07;;;9.43;;
3349;SDS011;1688;51.000;13.684;2022-08-19T01:36:27;10.10;;;7.90;;
3349;SDS011;1688;51.000;13.684;2022-08-19T01:39:09;15.57;;;7.70;;
3349;SDS011;1688;51.000;13.684;2022-08-19T01:41:38;19.27;;;7.87;;
3349;SDS011;1688;51.000;13.684;2022-08-19T01:44:05;12.87;;;9.80;;
3349;SDS011;1688;51.000;13.684;2022-08-19T01:46:33;11.13;;;8.00;;
3349;SDS011;1688;51.000;13.684;2022-08-19T01:48:59;11.00;;;7.17;;
3349;SDS011;1688;51.000;13.684;2022-08-19T01:51:26;11.97;;;8.33;;
3349;SDS011;1688;51.000;13.684;2022-08-19T01:53:52;17.90;;;7.63;;
3349;SDS011;1688;51.000;13.684;2022-08-19T01:56:19;8.97;;;6.30;;
3349;SDS011;1688;51.000;13.684;2022-08-19T01:58:47;12.90;;;10.37;;
3349;SDS011;1688;51.000;13.684;2022-08-19T02:01:19;14.77;;;9.27;;
3349;SDS011;1688;51.000;13.684;2022-08-19T02:03:45;14.77;;;8.57;;
3349;SDS011;1688;51.000;13.684;2022-08-19T02:06:11;14.30;;;9.10;;
3349;SDS011;1688;51.000;13.684;2022-08-19T02:08:37;13.87;;;7.93;;
3349;SDS011;1688;51.000;13.684;2022-08-19T02:11:06;10.70;;;7.77;;
3349;SDS011;1688;51.000;13.684;2022-08-19T02:13:32;10.80;;;7.63;;
3349;SDS011;1688;51.000;13.684;2022-08-19T02:15:59;10.23;;;8.10;;
3349;SDS011;1688;51.000;13.684;2022-08-19T02:18:25;11.93;;;8.13;;
3349;SDS011;1688;51.000;13.684;2022-08-19T02:20:51;10.37;;;8.40;;
3349;SDS011;1688;51.000;13.684;2022-08-19T02:23:17;13.50;;;8.93;;
3349;SDS011;1688;51.000;13.684;2022-08-19T02:25:44;16.77;;;8.90;;
3349;SDS011;1688;51.000;13.684;2022-08-19T02:28:11;11.43;;;8.17;;
3349;SDS011;1688;51.000;13.684;2022-08-19T02:30:37;15.13;;;7.87;;
3349;SDS011;1688;51.000;13.684;2022-08-19T02:33:05;14.13;;;11.40;;
3349;SDS011;1688;51.000;13.684;2022-08-19T02:35:30;13.77;;;8.30;;
3349;SDS011;1688;51.000;13.684;2022-08-19T02:37:56;15.63;;;9.67;;
3349;SDS011;1688;51.000;13.684;2022-08-19T02:40:46;8.40;;;6.30;;
3349;SDS011;1688;51.000;13.684;2022-08-19T02:43:15;10.13;;;8.83;;
3349;SDS011;1688;51.000;13.684;2022-08-19T02:45:41;19.57;;;9.40;;
3349;SDS011;1688;51.000;13.684;2022-08-19T02:48:07;13.27;;;9.63;;
3349;SDS011;1688;51.000;13.684;2022-08-19T02:50:37;13.47;;;8.27;;
3349;SDS011;1688;51.000;13.684;2022-08-19T02:53:04;12.57;;;9.17;;
3349;SDS011;1688;51.000;13.684;2022-08-19T02:55:30;10.33;;;7.50;;
3349;SDS011;1688;51.000;13.684;2022-08-19T02:57:56;13.10;;;9.63;;
3349;SDS011;1688;51.000;13.684;2022-08-19T03:00:23;15.47;;;8.33;;
3349;SDS011;1688;51.000;13.684;2022-08-19T03:02:49;12.50;;;9.20;;
3349;SDS011;1688;51.000;13.684;2022-08-19T03:05:15;13.37;;;10.80;;
3349;SDS011;1688;51.000;13.684;2022-08-19T03:07:41;12.50;;;9.27;;
3349;SDS011;1688;51.000;13.684;2022-08-19T03:10:09;18.67;;;9.97;;
3349;SDS011;1688;51.000;13.684;2022-08-19T03:12:36;12.90;;;9.30;;
3349;SDS011;1688;51.000;13.684;2022-08-19T03:15:06;11.47;;;8.43;;
3349;SDS011;1688;51.000;13.684;2022-08-19T03:17:33;9.80;;;8.67;;
3349;SDS011;1688;51.000;13.684;2022-08-19T03:20:00;9.67;;;7.80;;
3349;SDS011;1688;51.000;13.684;2022-08-19T03:22:26;17.33;;;10.40;;
3349;SDS011;1688;51.000;13.684;2022-08-19T03:24:51;16.77;;;12.40;;
3349;SDS011;1688;51.000;13.684;2022-08-19T03:27:18;16.17;;;10.97;;
3349;SDS011;1688;51.000;13.684;2022-08-19T03:29:44;18.13;;;11.27;;
3349;SDS011;1688;51.000;13.684;2022-08-19T03:32:10;18.77;;;9.10;;
3349;SDS011;1688;51.000;13.684;2022-08-19T03:34:37;12.90;;;8.90;;
3349;SDS011;1688;51.000;13.684;2022-08-19T03:37:08;12.80;;;10.17;;
3349;SDS011;1688;51.000;13.684;2022-08-19T03:39:37;11.43;;;9.00;;
3349;SDS011;1688;51.000;13.684;2022-08-19T03:42:04;13.20;;;8.57;;
3349;SDS011;1688;51.000;13.684;2022-08-19T03:44:30;14.63;;;8.70;;
3349;SDS011;1688;51.000;13.684;2022-08-19T03:46:58;14.10;;;8.23;;
3349;SDS011;1688;51.000;13.684;2022-08-19T03:49:26;9.60;;;7.43;;
3349;SDS011;1688;51.000;13.684;2022-08-19T03:51:54;21.10;;;9.73;;
3349;SDS011;1688;51.000;13.684;2022-08-19T03:54:21;14.87;;;11.83;;
3349;SDS011;1688;51.000;13.684;2022-08-19T03:56:49;12.33;;;8.57;;
3349;SDS011;1688;51.000;13.684;2022-08-19T03:59:18;13.10;;;10.60;;
3349;SDS011;1688;51.000;13.684;2022-08-19T04:01:46;10.10;;;9.10;;
3349;SDS011;1688;51.000;13.684;2022-08-19T04:04:12;12.37;;;7.40;;
3349;SDS011;1688;51.000;13.684;2022-08-19T04:06:38;15.90;;;8.13;;
3349;SDS011;1688;51.000;13.684;2022-08-19T04:09:05;12.50;;;7.40;;
3349;SDS011;1688;51.000;13.684;2022-08-19T04:11:35;14.83;;;10.03;;
3349;SDS011;1688;51.000;13.684;2022-08-19T04:14:09;16.10;;;9.03;;
3349;SDS011;1688;51.000;13.684;2022-08-19T04:16:40;25.87;;;11.13;;
3349;SDS011;1688;51.000;13.684;2022-08-19T04:19:07;12.50;;;8.37;;
3349;SDS011;1688;51.000;13.684;2022-08-19T04:21:33;19.57;;;11.67;;
3349;SDS011;1688;51.000;13.684;2022-08-19T04:23:59;15.27;;;9.40;;
3349;SDS011;1688;51.000;13.684;2022-08-19T04:26:29;17.97;;;11.47;;
3349;SDS011;1688;51.000;13.684;2022-08-19T04:29:00;18.50;;;9.20;;
3349;SDS011;1688;51.000;13.684;2022-08-19T04:31:30;16.60;;;8.70;;
3349;SDS011;1688;51.000;13.684;2022-08-19T04:34:01;18.17;;;8.07;;
3349;SDS011;1688;51.000;13.684;2022-08-19T04:36:30;16.80;;;8.77;;
3349;SDS011;1688;51.000;13.684;2022-08-19T04:38:59;13.53;;;8.93;;
3349;SDS011;1688;51.000;13.684;2022-08-19T04:41:30;17.67;;;9.90;;
3349;SDS011;1688;51.000;13.684;2022-08-19T04:44:14;16.43;;;10.00;;
3349;SDS011;1688;51.000;13.684;2022-08-19T04:46:43;15.33;;;8.87;;
3349;SDS011;1688;51.000;13.684;2022-08-19T04:49:10;15.00;;;9.33;;
3349;SDS011;1688;51.000;13.684;2022-08-19T04:51:36;11.27;;;8.80;;
3349;SDS011;1688;51.000;13.684;2022-08-19T04:54:06;17.70;;;8.67;;
3349;SDS011;1688;51.000;13.684;2022-08-19T04:56:33;14.33;;;9.50;;
3349;SDS011;1688;51.000;13.684;2022-08-19T04:58:59;14.00;;;9.13;;
3349;SDS011;1688;51.000;13.684;2022-08-19T05:01:34;14.27;;;9.17;;
3349;SDS011;1688;51.000;13.684;2022-08-19T05:04:01;24.53;;;10.60;;
3349;SDS011;1688;51.000;13.684;2022-08-19T05:06:30;12.40;;;9.00;;
3349;SDS011;1688;51.000;13.684;2022-08-19T05:08:59;17.57;;;8.40;;
3349;SDS011;1688;51.000;13.684;2022-08-19T05:11:27;17.83;;;10.70;;
3349;SDS011;1688;51.000;13.684;2022-08-19T05:13:55;18.97;;;9.60;;
3349;SDS011;1688;51.000;13.684;2022-08-19T05:16:22;12.90;;;9.57;;
3349;SDS011;1688;51.000;13.684;2022-08-19T05:18:49;16.40;;;10.03;;
3349;SDS011;1688;51.000;13.684;2022-08-19T05:21:33;11.33;;;7.50;;
3349;SDS011;1688;51.000;13.684;2022-08-19T05:24:19;13.00;;;8.50;;
3349;SDS011;1688;51.000;13.684;2022-08-19T05:26:47;16.57;;;9.27;;
3349;SDS011;1688;51.000;13.684;2022-08-19T05:29:16;13.93;;;8.40;;
3349;SDS011;1688;51.000;13.684;2022-08-19T05:31:45;10.17;;;7.53;;
3349;SDS011;1688;51.000;13.684;2022-08-19T05:34:15;12.53;;;7.97;;
3349;SDS011;1688;51.000;13.684;2022-08-19T05:36:43;11.80;;;8.90;;
3349;SDS011;1688;51.000;13.684;2022-08-19T05:39:12;11.17;;;9.23;;
3349;SDS011;1688;51.000;13.684;2022-08-19T05:41:44;15.10;;;9.30;;
3349;SDS011;1688;51.000;13.684;2022-08-19T05:44:13;12.83;;;9.93;;
3349;SDS011;1688;51.000;13.684;2022-08-19T05:46:40;13.10;;;8.40;;
3349;SDS011;1688;51.000;13.684;2022-08-19T05:49:08;13.10;;;8.57;;
3349;SDS011;1688;51.000;13.684;2022-08-19T05:51:36;17.20;;;10.00;;
3349;SDS011;1688;51.000;13.684;2022-08-19T05:54:05;14.80;;;9.83;;
3349;SDS011;1688;51.000;13.684;2022-08-19T05:56:33;10.40;;;7.70;;
3349;SDS011;1688;51.000;13.684;2022-08-19T05:59:03;7.60;;;5.90;;
3349;SDS011;1688;51.000;13.684;2022-08-19T06:01:33;14.03;;;8.20;;
3349;SDS011;1688;51.000;13.684;2022-08-19T06:03:59;10.67;;;7.30;;
3349;SDS011;1688;51.000;13.684;2022-08-19T06:06:25;8.93;;;6.87;;
3349;SDS011;1688;51.000;13.684;2022-08-19T06:08:52;24.50;;;7.60;;
3349;SDS011;1688;51.000;13.684;2022-08-19T06:11:22;8.70;;;5.83;;
3349;SDS011;1688;51.000;13.684;2022-08-19T06:14:04;10.20;;;6.30;;
3349;SDS011;1688;51.000;13.684;2022-08-19T06:16:34;9.23;;;6.87;;
3349;SDS011;1688;51.000;13.684;2022-08-19T06:19:03;7.70;;;5.53;;
3349;SDS011;1688;51.000;13.684;2022-08-19T06:21:33;8.20;;;5.53;;
3349;SDS011;1688;51.000;13.684;2022-08-19T06:24:02;6.77;;;6.10;;
3349;SDS011;1688;51.000;13.684;2022-08-19T06:26:30;8.37;;;5.50;;
3349;SDS011;1688;51.000;13.684;2022-08-19T06:28:56;9.47;;;7.10;;
3349;SDS011;1688;51.000;13.684;2022-08-19T06:31:24;11.03;;;6.37;;
3349;SDS011;1688;51.000;13.684;2022-08-19T06:33:51;24.57;;;6.30;;
3349;SDS011;1688;51.000;13.684;2022-08-19T06:36:21;9.23;;;5.17;;
3349;SDS011;1688;51.000;13.684;2022-08-19T06:39:07;8.33;;;6.50;;
3349;SDS011;1688;51.000;13.684;2022-08-19T06:41:35;10.00;;;5.80;;
3349;SDS011;1688;51.000;13.684;2022-08-19T06:44:03;9.73;;;7.27;;
3349;SDS011;1688;51.000;13.684;2022-08-19T06:46:29;9.07;;;5.37;;
3349;SDS011;1688;51.000;13.684;2022-08-19T06:48:56;10.03;;;6.13;;
3349;SDS011;1688;51.000;13.684;2022-08-19T06:51:22;8.20;;;4.83;;
3349;SDS011;1688;51.000;13.684;2022-08-19T06:53:50;8.60;;;7.33;;
3349;SDS011;1688;51.000;13.684;2022-08-19T06:56:19;12.50;;;6.17;;
3349;SDS011;1688;51.000;13.684;2022-08-19T06:58:50;9.30;;;6.73;;
3349;SDS011;1688;51.000;13.684;2022-08-19T07:01:18;12.70;;;6.57;;
3349;SDS011;1688;51.000;13.684;2022-08-19T07:03:45;13.03;;;7.97;;
3349;SDS011;1688;51.000;13.684;2022-08-19T07:06:15;10.60;;;6.63;;
3349;SDS011;1688;51.000;13.684;2022-08-19T07:08:46;12.13;;;6.10;;
3349;SDS011;1688;51.000;13.684;2022-08-19T07:11:14;11.13;;;7.63;;
3349;SDS011;1688;51.000;13.684;2022-08-19T07:13:43;8.80;;;8.10;;
3349;SDS011;1688;51.000;13.684;2022-08-19T07:16:15;10.83;;;6.70;;
3349;SDS011;1688;51.000;13.684;2022-08-19T07:18:43;10.00;;;7.33;;
3349;SDS011;1688;51.000;13.684;2022-08-19T07:21:14;11.57;;;7.50;;
3349;SDS011;1688;51.000;13.684;2022-08-19T07:23:45;13.30;;;7.30;;
3349;SDS011;1688;51.000;13.684;2022-08-19T07:28:42;13.80;;;9.40;;
3349;SDS011;1688;51.000;13.684;2022-08-19T07:31:10;9.20;;;7.10;;
3349;SDS011;1688;51.000;13.684;2022-08-19T07:33:38;10.40;;;6.80;;
3349;SDS011;1688;51.000;13.684;2022-08-19T07:36:06;9.03;;;6.57;;
3349;SDS011;1688;51.000;13.684;2022-08-19T07:38:36;13.30;;;7.17;;
3349;SDS011;1688;51.000;13.684;2022-08-19T07:41:06;10.60;;;7.63;;
3349;SDS011;1688;51.000;13.684;2022-08-19T07:43:32;8.40;;;7.13;;
3349;SDS011;1688;51.000;13.684;2022-08-19T07:45:58;10.20;;;6.33;;
3349;SDS011;1688;51.000;13.684;2022-08-19T07:48:27;10.33;;;6.50;;
3349;SDS011;1688;51.000;13.684;2022-08-19T07:50:54;10.40;;;7.13;;
3349;SDS011;1688;51.000;13.684;2022-08-19T07:53:23;10.83;;;6.97;;
3349;SDS011;1688;51.000;13.684;2022-08-19T07:55:50;17.17;;;7.17;;
3349;SDS011;1688;51.000;13.684;2022-08-19T07:58:20;10.40;;;6.50;;
3349;SDS011;1688;51.000;13.684;2022-08-19T08:00:48;17.80;;;7.10;;
3349;SDS011;1688;51.000;13.684;2022-08-19T08:03:16;13.87;;;7.57;;
3349;SDS011;1688;51.000;13.684;2022-08-19T08:05:44;11.70;;;5.80;;
3349;SDS011;1688;51.000;13.684;2022-08-19T08:08:28;10.87;;;6.60;;
3349;SDS011;1688;51.000;13.684;2022-08-19T08:11:13;9.77;;;7.70;;
3349;SDS011;1688;51.000;13.684;2022-08-19T08:13:41;14.30;;;7.67;;
3349;SDS011;1688;51.000;13.684;2022-08-19T08:16:07;15.37;;;9.00;;
3349;SDS011;1688;51.000;13.684;2022-08-19T08:18:33;15.03;;;6.53;;
3349;SDS011;1688;51.000;13.684;2022-08-19T08:21:06;9.60;;;6.07;;
3349;SDS011;1688;51.000;13.684;2022-08-19T08:23:33;12.27;;;8.03;;
3349;SDS011;1688;51.000;13.684;2022-08-19T08:25:59;15.17;;;8.73;;
3349;SDS011;1688;51.000;13.684;2022-08-19T08:28:27;13.50;;;7.43;;
3349;SDS011;1688;51.000;13.684;2022-08-19T08:30:54;10.40;;;7.60;;
3349;SDS011;1688;51.000;13.684;2022-08-19T08:33:23;19.80;;;9.67;;
3349;SDS011;1688;51.000;13.684;2022-08-19T08:35:52;8.27;;;7.43;;
3349;SDS011;1688;51.000;13.684;2022-08-19T08:38:18;11.43;;;7.77;;
3349;SDS011;1688;51.000;13.684;2022-08-19T08:43:28;15.67;;;9.17;;
3349;SDS011;1688;51.000;13.684;2022-08-19T08:48:34;11.60;;;6.93;;
3349;SDS011;1688;51.000;13.684;2022-08-19T08:51:03;11.00;;;6.80;;
3349;SDS011;1688;51.000;13.684;2022-08-19T08:53:34;11.80;;;6.57;;
3349;SDS011;1688;51.000;13.684;2022-08-19T08:56:02;11.23;;;6.53;;
3349;SDS011;1688;51.000;13.684;2022-08-19T08:58:43;8.80;;;7.50;;
3349;SDS011;1688;51.000;13.684;2022-08-19T09:01:16;7.93;;;5.70;;
3349;SDS011;1688;51.000;13.684;2022-08-19T09:03:42;11.20;;;8.33;;
3349;SDS011;1688;51.000;13.684;2022-08-19T09:11:45;11.20;;;6.20;;
3349;SDS011;1688;51.000;13.684;2022-08-19T09:16:47;13.43;;;4.97;;
3349;SDS011;1688;51.000;13.684;2022-08-19T09:19:14;11.80;;;6.57;;
3349;SDS011;1688;51.000;13.684;2022-08-19T09:21:42;8.10;;;5.93;;
3349;SDS011;1688;51.000;13.684;2022-08-19T09:24:08;8.30;;;6.30;;
3349;SDS011;1688;51.000;13.684;2022-08-19T09:26:34;5.37;;;4.73;;
3349;SDS011;1688;51.000;13.684;2022-08-19T09:29:00;7.13;;;5.90;;
3349;SDS011;1688;51.000;13.684;2022-08-19T09:31:28;9.60;;;7.73;;
3349;SDS011;1688;51.000;13.684;2022-08-19T09:33:55;7.53;;;5.50;;
3349;SDS011;1688;51.000;13.684;2022-08-19T09:36:30;8.47;;;6.40;;
3349;SDS011;1688;51.000;13.684;2022-08-19T09:38:59;10.30;;;6.53;;
3349;SDS011;1688;51.000;13.684;2022-08-19T09:41:25;8.93;;;6.43;;
3349;SDS011;1688;51.000;13.684;2022-08-19T09:43:53;10.63;;;5.80;;
3349;SDS011;1688;51.000;13.684;2022-08-19T09:46:21;15.40;;;7.40;;
3349;SDS011;1688;51.000;13.684;2022-08-19T09:48:50;9.60;;;6.60;;
3349;SDS011;1688;51.000;13.684;2022-08-19T09:51:22;9.63;;;6.27;;
3349;SDS011;1688;51.000;13.684;2022-08-19T09:53:50;9.87;;;7.30;;
3349;SDS011;1688;51.000;13.684;2022-08-19T09:56:19;14.67;;;8.60;;
3349;SDS011;1688;51.000;13.684;2022-08-19T09:58:47;14.03;;;7.30;;
3349;SDS011;1688;51.000;13.684;2022-08-19T10:01:23;7.77;;;5.90;;
3349;SDS011;1688;51.000;13.684;2022-08-19T10:03:51;9.57;;;5.87;;
3349;SDS011;1688;51.000;13.684;2022-08-19T10:06:20;10.40;;;8.20;;
3349;SDS011;1688;51.000;13.684;2022-08-19T10:08:47;8.90;;;7.77;;
3349;SDS011;1688;51.000;13.684;2022-08-19T10:11:13;8.63;;;6.17;;
3349;SDS011;1688;51.000;13.684;2022-08-19T10:13:44;8.87;;;6.40;;
3349;SDS011;1688;51.000;13.684;2022-08-19T10:16:12;13.10;;;7.77;;
3349;SDS011;1688;51.000;13.684;2022-08-19T10:18:41;11.17;;;6.70;;
3349;SDS011;1688;51.000;13.684;2022-08-19T10:23:43;8.73;;;6.03;;
3349;SDS011;1688;51.000;13.684;2022-08-19T10:26:11;8.37;;;5.63;;
3349;SDS011;1688;51.000;13.684;2022-08-19T10:28:39;9.50;;;5.53;;
3349;SDS011;1688;51.000;13.684;2022-08-19T10:31:09;4.63;;;4.23;;
3349;SDS011;1688;51.000;13.684;2022-08-19T10:33:38;5.80;;;5.30;;
3349;SDS011;1688;51.000;13.684;2022-08-19T10:36:07;7.67;;;5.20;;
3349;SDS011;1688;51.000;13.684;2022-08-19T10:38:36;14.13;;;7.80;;
3349;SDS011;1688;51.000;13.684;2022-08-19T10:41:10;9.00;;;5.03;;
3349;SDS011;1688;51.000;13.684;2022-08-19T10:43:37;4.97;;;4.20;;
3349;SDS011;1688;51.000;13.684;2022-08-19T10:46:04;5.03;;;3.43;;
3349;SDS011;1688;51.000;13.684;2022-08-19T10:48:42;4.23;;;3.83;;
3349;SDS011;1688;51.000;13.684;2022-08-19T10:51:11;3.83;;;3.30;;
3349;SDS011;1688;51.000;13.684;2022-08-19T10:53:56;8.70;;;3.77;;
3349;SDS011;1688;51.000;13.684;2022-08-19T10:56:23;4.67;;;4.10;;
3349;SDS011;1688;51.000;13.684;2022-08-19T10:59:08;7.87;;;4.57;;
3349;SDS011;1688;51.000;13.684;2022-08-19T11:01:35;2.60;;;2.40;;
3349;SDS011;1688;51.000;13.684;2022-08-19T11:04:01;3.57;;;3.10;;
3349;SDS011;1688;51.000;13.684;2022-08-19T11:06:28;4.33;;;3.37;;
3349;SDS011;1688;51.000;13.684;2022-08-19T11:08:56;4.30;;;3.23;;
3349;SDS011;1688;51.000;13.684;2022-08-19T11:11:23;3.77;;;3.37;;
3349;SDS011;1688;51.000;13.684;2022-08-19T11:13:49;4.57;;;3.00;;
3349;SDS011;1688;51.000;13.684;2022-08-19T11:16:17;5.50;;;4.07;;
3349;SDS011;1688;51.000;13.684;2022-08-19T11:18:48;3.30;;;2.73;;
3349;SDS011;1688;51.000;13.684;2022-08-19T11:21:29;4.47;;;3.77;;
3349;SDS011;1688;51.000;13.684;2022-08-19T11:23:57;5.00;;;3.00;;
3349;SDS011;1688;51.000;13.684;2022-08-19T11:26:26;6.37;;;4.30;;
3349;SDS011;1688;51.000;13.684;2022-08-19T11:28:52;5.17;;;3.77;;
3349;SDS011;1688;51.000;13.684;2022-08-19T11:31:21;5.17;;;4.33;;
3349;SDS011;1688;51.000;13.684;2022-08-19T11:33:51;6.97;;;4.63;;
3349;SDS011;1688;51.000;13.684;2022-08-19T11:36:19;3.83;;;3.43;;
3349;SDS011;1688;51.000;13.684;2022-08-19T11:38:47;7.47;;;5.00;;
3349;SDS011;1688;51.000;13.684;2022-08-19T11:41:14;5.40;;;4.80;;
3349;SDS011;1688;51.000;13.684;2022-08-19T11:43:42;6.83;;;4.70;;
3349;SDS011;1688;51.000;13.684;2022-08-19T11:46:08;5.10;;;4.60;;
3349;SDS011;1688;51.000;13.684;2022-08-19T11:48:37;4.77;;;3.93;;
3349;SDS011;1688;51.000;13.684;2022-08-19T11:51:05;5.40;;;3.97;;
3349;SDS011;1688;51.000;13.684;2022-08-19T11:53:34;6.73;;;4.70;;
3349;SDS011;1688;51.000;13.684;2022-08-19T11:56:00;8.30;;;5.57;;
3349;SDS011;1688;51.000;13.684;2022-08-19T11:58:29;10.90;;;5.67;;
3349;SDS011;1688;51.000;13.684;2022-08-19T12:00:55;9.77;;;6.87;;
3349;SDS011;1688;51.000;13.684;2022-08-19T12:03:21;7.67;;;5.27;;
3349;SDS011;1688;51.000;13.684;2022-08-19T12:05:47;10.60;;;6.00;;
3349;SDS011;1688;51.000;13.684;2022-08-19T12:08:15;10.43;;;6.13;;
3349;SDS011;1688;51.000;13.684;2022-08-19T12:10:41;15.20;;;6.67;;
3349;SDS011;1688;51.000;13.684;2022-08-19T12:13:09;10.17;;;7.53;;
3349;SDS011;1688;51.000;13.684;2022-08-19T12:15:38;9.40;;;6.70;;
3349;SDS011;1688;51.000;13.684;2022-08-19T12:18:08;9.90;;;6.60;;
3349;SDS011;1688;51.000;13.684;2022-08-19T12:20:38;8.17;;;7.10;;
3349;SDS011;1688;51.000;13.684;2022-08-19T12:23:05;15.47;;;8.50;;
3349;SDS011;1688;51.000;13.684;2022-08-19T12:25:34;11.47;;;6.53;;
3349;SDS011;1688;51.000;13.684;2022-08-19T12:28:13;13.40;;;8.07;;
3349;SDS011;1688;51.000;13.684;2022-08-19T12:30:39;17.13;;;9.07;;
3349;SDS011;1688;51.000;13.684;2022-08-19T12:33:06;18.90;;;8.27;;
3349;SDS011;1688;51.000;13.684;2022-08-19T12:35:32;16.33;;;9.87;;
3349;SDS011;1688;51.000;13.684;2022-08-19T12:37:59;17.43;;;9.50;;
3349;SDS011;1688;51.000;13.684;2022-08-19T12:40:27;17.83;;;10.60;;
3349;SDS011;1688;51.000;13.684;2022-08-19T12:42:53;12.93;;;9.90;;
3349;SDS011;1688;51.000;13.684;2022-08-19T12:45:19;13.23;;;9.30;;
3349;SDS011;1688;51.000;13.684;2022-08-19T12:47:45;14.07;;;8.73;;
3349;SDS011;1688;51.000;13.684;2022-08-19T12:50:12;17.77;;;9.70;;
3349;SDS011;1688;51.000;13.684;2022-08-19T12:52:38;17.87;;;10.23;;
3349;SDS011;1688;51.000;13.684;2022-08-19T12:55:06;30.70;;;9.70;;
3349;SDS011;1688;51.000;13.684;2022-08-19T12:57:33;13.80;;;9.33;;
3349;SDS011;1688;51.000;13.684;2022-08-19T13:00:10;14.00;;;8.23;;
3349;SDS011;1688;51.000;13.684;2022-08-19T13:02:40;12.80;;;9.10;;
3349;SDS011;1688;51.000;13.684;2022-08-19T13:05:09;17.50;;;8.43;;
3349;SDS011;1688;51.000;13.684;2022-08-19T13:07:38;12.93;;;9.90;;
3349;SDS011;1688;51.000;13.684;2022-08-19T13:10:09;16.73;;;9.40;;
3349;SDS011;1688;51.000;13.684;2022-08-19T13:12:40;14.20;;;9.10;;
3349;SDS011;1688;51.000;13.684;2022-08-19T13:15:07;13.30;;;7.73;;
3349;SDS011;1688;51.000;13.684;2022-08-19T13:17:34;17.63;;;8.77;;
3349;SDS011;1688;51.000;13.684;2022-08-19T13:20:01;14.43;;;9.60;;
3349;SDS011;1688;51.000;13.684;2022-08-19T13:22:27;16.50;;;8.73;;
3349;SDS011;1688;51.000;13.684;2022-08-19T13:24:52;18.07;;;9.53;;
3349;SDS011;1688;51.000;13.684;2022-08-19T13:27:18;13.30;;;8.50;;
3349;SDS011;1688;51.000;13.684;2022-08-19T13:29:44;30.20;;;10.80;;
3349;SDS011;1688;51.000;13.684;2022-08-19T13:32:29;14.47;;;10.23;;
3349;SDS011;1688;51.000;13.684;2022-08-19T13:35:14;16.40;;;9.93;;
3349;SDS011;1688;51.000;13.684;2022-08-19T13:37:41;14.07;;;9.73;;
3349;SDS011;1688;51.000;13.684;2022-08-19T13:40:12;13.43;;;10.30;;
3349;SDS011;1688;51.000;13.684;2022-08-19T13:42:50;14.53;;;10.40;;
3349;SDS011;1688;51.000;13.684;2022-08-19T13:45:18;18.47;;;10.63;;
3349;SDS011;1688;51.000;13.684;2022-08-19T13:47:51;18.73;;;11.00;;
3349;SDS011;1688;51.000;13.684;2022-08-19T13:50:20;23.93;;;12.57;;
3349;SDS011;1688;51.000;13.684;2022-08-19T13:52:51;16.10;;;10.63;;
3349;SDS011;1688;51.000;13.684;2022-08-19T13:55:18;18.40;;;10.33;;
3349;SDS011;1688;51.000;13.684;2022-08-19T13:57:45;20.50;;;11.40;;
3349;SDS011;1688;51.000;13.684;2022-08-19T14:00:13;23.47;;;14.33;;
3349;SDS011;1688;51.000;13.684;2022-08-19T14:02:43;22.63;;;13.13;;
3349;SDS011;1688;51.000;13.684;2022-08-19T14:05:11;28.40;;;12.27;;
3349;SDS011;1688;51.000;13.684;2022-08-19T14:07:38;32.40;;;12.07;;
3349;SDS011;1688;51.000;13.684;2022-08-19T14:10:05;23.60;;;12.93;;
3349;SDS011;1688;51.000;13.684;2022-08-19T14:12:34;20.93;;;13.10;;
3349;SDS011;1688;51.000;13.684;2022-08-19T14:15:01;23.30;;;13.80;;
3349;SDS011;1688;51.000;13.684;2022-08-19T14:17:28;31.17;;;11.70;;
3349;SDS011;1688;51.000;13.684;2022-08-19T14:19:58;17.17;;;10.97;;
3349;SDS011;1688;51.000;13.684;2022-08-19T14:22:31;23.80;;;14.43;;
3349;SDS011;1688;51.000;13.684;2022-08-19T14:24:57;25.00;;;13.70;;
3349;SDS011;1688;51.000;13.684;2022-08-19T14:27:23;20.83;;;12.10;;
3349;SDS011;1688;51.000;13.684;2022-08-19T14:29:53;25.53;;;14.70;;
3349;SDS011;1688;51.000;13.684;2022-08-19T14:32:20;26.83;;;14.03;;
3349;SDS011;1688;51.000;13.684;2022-08-19T14:34:46;29.33;;;14.13;;
3349;SDS011;1688;51.000;13.684;2022-08-19T14:37:13;29.87;;;14.63;;
3349;SDS011;1688;51.000;13.684;2022-08-19T14:39:43;22.97;;;13.60;;
3349;SDS011;1688;51.000;13.684;2022-08-19T14:42:10;19.30;;;11.60;;
3349;SDS011;1688;51.000;13.684;2022-08-19T14:44:36;24.90;;;13.00;;
3349;SDS011;1688;51.000;13.684;2022-08-19T14:47:02;22.07;;;10.20;;
3349;SDS011;1688;51.000;13.684;2022-08-19T14:49:28;21.60;;;13.43;;
3349;SDS011;1688;51.000;13.684;2022-08-19T14:51:54;25.73;;;12.97;;
3349;SDS011;1688;51.000;13.684;2022-08-19T14:54:21;22.03;;;12.90;;
3349;SDS011;1688;51.000;13.684;2022-08-19T14:56:47;19.77;;;12.50;;
3349;SDS011;1688;51.000;13.684;2022-08-19T14:59:13;26.00;;;14.37;;
3349;SDS011;1688;51.000;13.684;2022-08-19T15:01:39;20.87;;;14.63;;
3349;SDS011;1688;51.000;13.684;2022-08-19T15:04:05;25.87;;;13.17;;
3349;SDS011;1688;51.000;13.684;2022-08-19T15:06:32;25.50;;;14.67;;
3349;SDS011;1688;51.000;13.684;2022-08-19T15:08:59;18.23;;;11.63;;
3349;SDS011;1688;51.000;13.684;2022-08-19T15:11:26;26.57;;;14.87;;
3349;SDS011;1688;51.000;13.684;2022-08-19T15:13:56;24.53;;;13.27;;
3349;SDS011;1688;51.000;13.684;2022-08-19T15:16:22;19.67;;;14.27;;